sensor_id;sensor_type;location;lat;lon;timestamp;P1;durP1;ratioP1;P2;durP2;ratioP2
4601;SDS011;2313;48.552;9.370;2022-07-12T00:01:36;3.60;;;3.30;;
4601;SDS011;2313;48.552;9.370;2022-07-12T00:04:02;3.70;;;3.40;;
4601;SDS011;2313;48.552;9.370;2022-07-12T00:06:27;4.10;;;3.80;;
4601;SDS011;2313;48.552;9.370;2022-07-12T00:08:53;4.80;;;4.30;;
4601;SDS011;2313;48.552;9.370;2022-07-12T00:11:18;4.23;;;3.80;;
4601;SDS011;2313;48.552;9.370;2022-07-12T00:13:44;4.00;;;3.70;;
4601;SDS011;2313;48.552;9.370;2022-07-12T00:16:10;5.60;;;3.60;;
4601;SDS011;2313;48.552;9.370;2022-07-12T00:18:36;4.13;;;3.73;;
4601;SDS011;2313;48.552;9.370;2022-07-12T00:21:01;3.83;;;3.53;;
4601;SDS011;2313;48.552;9.370;2022-07-12T00:23:27;3.70;;;3.40;;
4601;SDS011;2313;48.552;9.370;2022-07-12T00:25:53;3.83;;;3.47;;
4601;SDS011;2313;48.552;9.370;2022-07-12T00:28:18;4.07;;;3.60;;
4601;SDS011;2313;48.552;9.370;2022-07-12T00:30:44;4.70;;;4.00;;
4601;SDS011;2313;48.552;9.370;2022-07-12T00:33:10;4.23;;;3.83;;
4601;SDS011;2313;48.552;9.370;2022-07-12T00:35:36;4.47;;;4.17;;
4601;SDS011;2313;48.552;9.370;2022-07-12T00:38:01;4.47;;;3.60;;
4601;SDS011;2313;48.552;9.370;2022-07-12T00:40:27;5.27;;;3.60;;
4601;SDS011;2313;48.552;9.370;2022-07-12T00:42:53;4.50;;;3.90;;
4601;SDS011;2313;48.552;9.370;2022-07-12T00:45:18;4.60;;;3.70;;
4601;SDS011;2313;48.552;9.370;2022-07-12T00:47:45;4.40;;;4.00;;
4601;SDS011;2313;48.552;9.370;2022-07-12T00:52:46;4.17;;;3.77;;
4601;SDS011;2313;48.552;9.370;2022-07-12T00:55:13;5.20;;;3.20;;
4601;SDS011;2313;48.552;9.370;2022-07-12T00:57:40;5.70;;;3.80;;
4601;SDS011;2313;48.552;9.370;2022-07-12T01:00:08;7.17;;;4.00;;
4601;SDS011;2313;48.552;9.370;2022-07-12T01:02:36;5.40;;;3.87;;
4601;SDS011;2313;48.552;9.370;2022-07-12T01:05:05;4.20;;;3.80;;
4601;SDS011;2313;48.552;9.370;2022-07-12T01:07:33;3.97;;;3.67;;
4601;SDS011;2313;48.552;9.370;2022-07-12T01:10:00;3.67;;;3.33;;
4601;SDS011;2313;48.552;9.370;2022-07-12T01:12:26;5.77;;;3.90;;
4601;SDS011;2313;48.552;9.370;2022-07-12T01:14:52;5.60;;;3.50;;
4601;SDS011;2313;48.552;9.370;2022-07-12T01:17:22;4.07;;;3.77;;
4601;SDS011;2313;48.552;9.370;2022-07-12T01:19:49;4.40;;;4.00;;
4601;SDS011;2313;48.552;9.370;2022-07-12T01:22:20;4.97;;;4.33;;
4601;SDS011;2313;48.552;9.370;2022-07-12T01:24:56;6.80;;;4.60;;
4601;SDS011;2313;48.552;9.370;2022-07-12T01:27:22;6.40;;;5.17;;
4601;SDS011;2313;48.552;9.370;2022-07-12T01:29:48;4.80;;;4.30;;
4601;SDS011;2313;48.552;9.370;2022-07-12T01:32:14;5.03;;;4.30;;
4601;SDS011;2313;48.552;9.370;2022-07-12T01:34:59;5.37;;;4.87;;
4601;SDS011;2313;48.552;9.370;2022-07-12T01:37:28;4.77;;;4.33;;
4601;SDS011;2313;48.552;9.370;2022-07-12T01:40:03;6.40;;;4.53;;
4601;SDS011;2313;48.552;9.370;2022-07-12T01:42:30;4.37;;;3.97;;
4601;SDS011;2313;48.552;9.370;2022-07-12T01:44:57;4.43;;;3.90;;
4601;SDS011;2313;48.552;9.370;2022-07-12T01:47:24;4.80;;;4.00;;
4601;SDS011;2313;48.552;9.370;2022-07-12T01:49:52;6.23;;;5.10;;
4601;SDS011;2313;48.552;9.370;2022-07-12T01:52:18;4.10;;;3.80;;
4601;SDS011;2313;48.552;9.370;2022-07-12T01:54:44;4.37;;;4.07;;
4601;SDS011;2313;48.552;9.370;2022-07-12T01:57:11;4.60;;;4.13;;
4601;SDS011;2313;48.552;9.370;2022-07-12T01:59:38;4.33;;;3.93;;
4601;SDS011;2313;48.552;9.370;2022-07-12T02:02:05;5.50;;;3.93;;
4601;SDS011;2313;48.552;9.370;2022-07-12T02:04:31;5.17;;;4.60;;
4601;SDS011;2313;48.552;9.370;2022-07-12T02:06:56;4.10;;;3.80;;
4601;SDS011;2313;48.552;9.370;2022-07-12T02:09:22;7.43;;;4.87;;
4601;SDS011;2313;48.552;9.370;2022-07-12T02:11:48;5.47;;;4.93;;
4601;SDS011;2313;48.552;9.370;2022-07-12T02:14:15;6.20;;;5.37;;
4601;SDS011;2313;48.552;9.370;2022-07-12T02:16:42;6.47;;;5.13;;
4601;SDS011;2313;48.552;9.370;2022-07-12T02:19:09;5.43;;;4.90;;
4601;SDS011;2313;48.552;9.370;2022-07-12T02:21:36;5.97;;;5.47;;
4601;SDS011;2313;48.552;9.370;2022-07-12T02:24:01;5.23;;;4.73;;
4601;SDS011;2313;48.552;9.370;2022-07-12T02:26:28;4.97;;;4.50;;
4601;SDS011;2313;48.552;9.370;2022-07-12T02:28:54;10.03;;;4.57;;
4601;SDS011;2313;48.552;9.370;2022-07-12T02:31:19;7.10;;;4.43;;
4601;SDS011;2313;48.552;9.370;2022-07-12T02:33:45;7.17;;;4.10;;
4601;SDS011;2313;48.552;9.370;2022-07-12T02:36:11;5.17;;;4.23;;
4601;SDS011;2313;48.552;9.370;2022-07-12T02:38:36;4.87;;;4.27;;
4601;SDS011;2313;48.552;9.370;2022-07-12T02:41:02;7.30;;;4.60;;
4601;SDS011;2313;48.552;9.370;2022-07-12T02:43:31;5.43;;;4.27;;
4601;SDS011;2313;48.552;9.370;2022-07-12T02:46:03;7.83;;;4.83;;
4601;SDS011;2313;48.552;9.370;2022-07-12T02:48:30;4.30;;;3.90;;
4601;SDS011;2313;48.552;9.370;2022-07-12T02:50:56;4.80;;;4.40;;
4601;SDS011;2313;48.552;9.370;2022-07-12T02:53:22;4.77;;;4.30;;
4601;SDS011;2313;48.552;9.370;2022-07-12T02:55:48;5.97;;;4.53;;
4601;SDS011;2313;48.552;9.370;2022-07-12T02:58:14;5.60;;;5.00;;
4601;SDS011;2313;48.552;9.370;2022-07-12T03:00:40;5.30;;;4.23;;
4601;SDS011;2313;48.552;9.370;2022-07-12T03:03:07;8.30;;;4.67;;
4601;SDS011;2313;48.552;9.370;2022-07-12T03:05:36;5.20;;;4.43;;
4601;SDS011;2313;48.552;9.370;2022-07-12T03:08:05;4.40;;;4.00;;
4601;SDS011;2313;48.552;9.370;2022-07-12T03:10:31;5.23;;;4.53;;
4601;SDS011;2313;48.552;9.370;2022-07-12T03:12:57;4.50;;;4.10;;
4601;SDS011;2313;48.552;9.370;2022-07-12T03:15:23;4.87;;;4.47;;
4601;SDS011;2313;48.552;9.370;2022-07-12T03:17:48;5.10;;;4.60;;
4601;SDS011;2313;48.552;9.370;2022-07-12T03:20:14;5.03;;;4.53;;
4601;SDS011;2313;48.552;9.370;2022-07-12T03:22:40;5.30;;;4.70;;
4601;SDS011;2313;48.552;9.370;2022-07-12T03:25:06;4.50;;;4.10;;
4601;SDS011;2313;48.552;9.370;2022-07-12T03:27:33;5.23;;;4.73;;
4601;SDS011;2313;48.552;9.370;2022-07-12T03:29:59;6.63;;;4.27;;
4601;SDS011;2313;48.552;9.370;2022-07-12T03:32:25;7.07;;;4.53;;
4601;SDS011;2313;48.552;9.370;2022-07-12T03:34:50;5.73;;;4.93;;
4601;SDS011;2313;48.552;9.370;2022-07-12T03:37:16;5.70;;;4.10;;
4601;SDS011;2313;48.552;9.370;2022-07-12T03:39:42;6.67;;;4.70;;
4601;SDS011;2313;48.552;9.370;2022-07-12T03:42:07;4.37;;;3.93;;
4601;SDS011;2313;48.552;9.370;2022-07-12T03:44:33;5.70;;;4.33;;
4601;SDS011;2313;48.552;9.370;2022-07-12T03:46:59;4.50;;;4.10;;
4601;SDS011;2313;48.552;9.370;2022-07-12T03:49:25;4.70;;;4.30;;
4601;SDS011;2313;48.552;9.370;2022-07-12T03:51:50;4.80;;;3.90;;
4601;SDS011;2313;48.552;9.370;2022-07-12T03:54:16;8.40;;;4.50;;
4601;SDS011;2313;48.552;9.370;2022-07-12T03:56:42;8.50;;;5.07;;
4601;SDS011;2313;48.552;9.370;2022-07-12T03:59:26;5.80;;;4.33;;
4601;SDS011;2313;48.552;9.370;2022-07-12T04:01:52;6.07;;;5.00;;
4601;SDS011;2313;48.552;9.370;2022-07-12T04:04:18;5.63;;;4.67;;
4601;SDS011;2313;48.552;9.370;2022-07-12T04:06:43;5.47;;;4.90;;
4601;SDS011;2313;48.552;9.370;2022-07-12T04:09:09;4.60;;;4.20;;
4601;SDS011;2313;48.552;9.370;2022-07-12T04:11:34;5.57;;;4.20;;
4601;SDS011;2313;48.552;9.370;2022-07-12T04:14:00;6.40;;;4.67;;
4601;SDS011;2313;48.552;9.370;2022-07-12T04:16:26;5.07;;;4.60;;
4601;SDS011;2313;48.552;9.370;2022-07-12T04:18:52;4.50;;;4.10;;
4601;SDS011;2313;48.552;9.370;2022-07-12T04:21:19;5.50;;;3.73;;
4601;SDS011;2313;48.552;9.370;2022-07-12T04:23:44;4.67;;;4.27;;
4601;SDS011;2313;48.552;9.370;2022-07-12T04:26:10;7.70;;;4.23;;
4601;SDS011;2313;48.552;9.370;2022-07-12T04:28:36;7.33;;;5.00;;
4601;SDS011;2313;48.552;9.370;2022-07-12T04:31:02;5.30;;;4.50;;
4601;SDS011;2313;48.552;9.370;2022-07-12T04:33:28;4.87;;;4.47;;
4601;SDS011;2313;48.552;9.370;2022-07-12T04:35:53;7.33;;;5.20;;
4601;SDS011;2313;48.552;9.370;2022-07-12T04:38:19;5.60;;;5.10;;
4601;SDS011;2313;48.552;9.370;2022-07-12T04:40:45;5.70;;;5.07;;
4601;SDS011;2313;48.552;9.370;2022-07-12T04:43:11;6.83;;;4.93;;
4601;SDS011;2313;48.552;9.370;2022-07-12T04:45:37;8.13;;;5.77;;
4601;SDS011;2313;48.552;9.370;2022-07-12T04:48:02;6.93;;;4.97;;
4601;SDS011;2313;48.552;9.370;2022-07-12T04:50:28;6.10;;;5.40;;
4601;SDS011;2313;48.552;9.370;2022-07-12T04:52:54;7.63;;;5.30;;
4601;SDS011;2313;48.552;9.370;2022-07-12T04:55:19;6.93;;;5.97;;
4601;SDS011;2313;48.552;9.370;2022-07-12T04:57:45;6.53;;;5.10;;
4601;SDS011;2313;48.552;9.370;2022-07-12T05:00:11;5.30;;;4.83;;
4601;SDS011;2313;48.552;9.370;2022-07-12T05:02:37;5.17;;;4.67;;
4601;SDS011;2313;48.552;9.370;2022-07-12T05:05:02;8.50;;;5.90;;
4601;SDS011;2313;48.552;9.370;2022-07-12T05:07:28;6.90;;;5.73;;
4601;SDS011;2313;48.552;9.370;2022-07-12T05:09:54;8.13;;;5.23;;
4601;SDS011;2313;48.552;9.370;2022-07-12T05:12:19;7.90;;;4.63;;
4601;SDS011;2313;48.552;9.370;2022-07-12T05:14:45;10.73;;;5.03;;
4601;SDS011;2313;48.552;9.370;2022-07-12T05:17:11;7.40;;;5.00;;
4601;SDS011;2313;48.552;9.370;2022-07-12T05:19:37;5.80;;;5.20;;
4601;SDS011;2313;48.552;9.370;2022-07-12T05:22:03;8.60;;;5.33;;
4601;SDS011;2313;48.552;9.370;2022-07-12T05:24:29;8.00;;;5.20;;
4601;SDS011;2313;48.552;9.370;2022-07-12T05:26:55;6.47;;;5.43;;
4601;SDS011;2313;48.552;9.370;2022-07-12T05:29:21;6.47;;;5.30;;
4601;SDS011;2313;48.552;9.370;2022-07-12T05:31:47;6.60;;;5.37;;
4601;SDS011;2313;48.552;9.370;2022-07-12T05:34:13;6.13;;;4.90;;
4601;SDS011;2313;48.552;9.370;2022-07-12T05:36:38;6.00;;;4.70;;
4601;SDS011;2313;48.552;9.370;2022-07-12T05:39:04;7.07;;;5.37;;
4601;SDS011;2313;48.552;9.370;2022-07-12T05:41:30;10.03;;;5.00;;
4601;SDS011;2313;48.552;9.370;2022-07-12T05:43:56;6.90;;;6.20;;
4601;SDS011;2313;48.552;9.370;2022-07-12T05:46:22;6.23;;;5.63;;
4601;SDS011;2313;48.552;9.370;2022-07-12T05:48:47;6.77;;;5.63;;
4601;SDS011;2313;48.552;9.370;2022-07-12T05:51:13;10.00;;;6.60;;
4601;SDS011;2313;48.552;9.370;2022-07-12T05:53:57;8.60;;;5.83;;
4601;SDS011;2313;48.552;9.370;2022-07-12T05:56:23;7.20;;;6.23;;
4601;SDS011;2313;48.552;9.370;2022-07-12T05:58:48;7.60;;;6.10;;
4601;SDS011;2313;48.552;9.370;2022-07-12T06:01:15;6.83;;;4.93;;
4601;SDS011;2313;48.552;9.370;2022-07-12T06:03:42;9.27;;;6.30;;
4601;SDS011;2313;48.552;9.370;2022-07-12T06:06:07;9.40;;;6.47;;
4601;SDS011;2313;48.552;9.370;2022-07-12T06:08:33;6.27;;;5.53;;
4601;SDS011;2313;48.552;9.370;2022-07-12T06:10:59;8.50;;;6.20;;
4601;SDS011;2313;48.552;9.370;2022-07-12T06:13:25;5.90;;;5.30;;
4601;SDS011;2313;48.552;9.370;2022-07-12T06:15:50;5.43;;;4.83;;
4601;SDS011;2313;48.552;9.370;2022-07-12T06:18:16;7.07;;;5.17;;
4601;SDS011;2313;48.552;9.370;2022-07-12T06:20:42;4.90;;;4.50;;
4601;SDS011;2313;48.552;9.370;2022-07-12T06:23:08;6.47;;;5.10;;
4601;SDS011;2313;48.552;9.370;2022-07-12T06:25:33;6.57;;;5.33;;
4601;SDS011;2313;48.552;9.370;2022-07-12T06:28:00;4.23;;;3.93;;
4601;SDS011;2313;48.552;9.370;2022-07-12T06:30:26;11.60;;;5.40;;
4601;SDS011;2313;48.552;9.370;2022-07-12T06:32:51;5.00;;;4.30;;
4601;SDS011;2313;48.552;9.370;2022-07-12T06:35:17;4.47;;;4.17;;
4601;SDS011;2313;48.552;9.370;2022-07-12T06:37:43;5.17;;;4.67;;
4601;SDS011;2313;48.552;9.370;2022-07-12T06:40:10;5.37;;;3.93;;
4601;SDS011;2313;48.552;9.370;2022-07-12T06:42:36;4.90;;;4.40;;
4601;SDS011;2313;48.552;9.370;2022-07-12T06:45:02;4.77;;;3.93;;
4601;SDS011;2313;48.552;9.370;2022-07-12T06:47:28;7.70;;;4.10;;
4601;SDS011;2313;48.552;9.370;2022-07-12T06:49:54;7.63;;;4.93;;
4601;SDS011;2313;48.552;9.370;2022-07-12T06:52:20;5.40;;;4.90;;
4601;SDS011;2313;48.552;9.370;2022-07-12T06:54:45;5.73;;;4.37;;
4601;SDS011;2313;48.552;9.370;2022-07-12T06:57:11;4.80;;;4.40;;
4601;SDS011;2313;48.552;9.370;2022-07-12T06:59:37;5.83;;;4.17;;
4601;SDS011;2313;48.552;9.370;2022-07-12T07:02:03;4.90;;;4.23;;
4601;SDS011;2313;48.552;9.370;2022-07-12T07:04:29;4.40;;;4.00;;
4601;SDS011;2313;48.552;9.370;2022-07-12T07:06:54;6.40;;;4.67;;
4601;SDS011;2313;48.552;9.370;2022-07-12T07:09:20;6.63;;;4.53;;
4601;SDS011;2313;48.552;9.370;2022-07-12T07:11:46;4.40;;;4.00;;
4601;SDS011;2313;48.552;9.370;2022-07-12T07:14:11;4.40;;;4.00;;
4601;SDS011;2313;48.552;9.370;2022-07-12T07:16:37;3.83;;;3.43;;
4601;SDS011;2313;48.552;9.370;2022-07-12T07:19:03;8.70;;;4.93;;
4601;SDS011;2313;48.552;9.370;2022-07-12T07:21:28;3.27;;;2.90;;
4601;SDS011;2313;48.552;9.370;2022-07-12T07:23:54;4.03;;;3.63;;
4601;SDS011;2313;48.552;9.370;2022-07-12T07:26:20;3.63;;;3.30;;
4601;SDS011;2313;48.552;9.370;2022-07-12T07:28:46;4.40;;;3.63;;
4601;SDS011;2313;48.552;9.370;2022-07-12T07:31:40;4.30;;;3.90;;
4601;SDS011;2313;48.552;9.370;2022-07-12T07:34:06;4.30;;;3.47;;
4601;SDS011;2313;48.552;9.370;2022-07-12T07:36:32;4.10;;;3.70;;
4601;SDS011;2313;48.552;9.370;2022-07-12T07:38:58;8.20;;;3.57;;
4601;SDS011;2313;48.552;9.370;2022-07-12T07:41:24;3.30;;;3.00;;
4601;SDS011;2313;48.552;9.370;2022-07-12T07:43:49;3.67;;;3.20;;
4601;SDS011;2313;48.552;9.370;2022-07-12T07:46:16;6.23;;;3.67;;
4601;SDS011;2313;48.552;9.370;2022-07-12T07:48:41;3.43;;;2.83;;
4601;SDS011;2313;48.552;9.370;2022-07-12T07:51:07;3.90;;;2.80;;
4601;SDS011;2313;48.552;9.370;2022-07-12T07:53:33;3.40;;;2.40;;
4601;SDS011;2313;48.552;9.370;2022-07-12T07:55:59;3.27;;;2.97;;
4601;SDS011;2313;48.552;9.370;2022-07-12T07:58:25;3.27;;;2.30;;
4601;SDS011;2313;48.552;9.370;2022-07-12T08:00:51;1.93;;;1.83;;
4601;SDS011;2313;48.552;9.370;2022-07-12T08:03:17;2.80;;;2.60;;
4601;SDS011;2313;48.552;9.370;2022-07-12T08:05:46;2.00;;;1.90;;
4601;SDS011;2313;48.552;9.370;2022-07-12T08:08:13;2.57;;;2.40;;
4601;SDS011;2313;48.552;9.370;2022-07-12T08:10:39;4.23;;;2.00;;
4601;SDS011;2313;48.552;9.370;2022-07-12T08:13:05;2.10;;;2.00;;
4601;SDS011;2313;48.552;9.370;2022-07-12T08:15:31;2.53;;;2.30;;
4601;SDS011;2313;48.552;9.370;2022-07-12T08:17:57;6.03;;;2.57;;
4601;SDS011;2313;48.552;9.370;2022-07-12T08:20:23;1.87;;;1.77;;
4601;SDS011;2313;48.552;9.370;2022-07-12T08:22:49;7.23;;;2.57;;
4601;SDS011;2313;48.552;9.370;2022-07-12T08:25:15;2.23;;;2.13;;
4601;SDS011;2313;48.552;9.370;2022-07-12T08:27:41;2.27;;;2.10;;
4601;SDS011;2313;48.552;9.370;2022-07-12T08:30:07;2.20;;;2.10;;
4601;SDS011;2313;48.552;9.370;2022-07-12T08:32:33;2.00;;;1.90;;
4601;SDS011;2313;48.552;9.370;2022-07-12T08:34:59;1.80;;;1.70;;
4601;SDS011;2313;48.552;9.370;2022-07-12T08:37:24;1.80;;;1.70;;
4601;SDS011;2313;48.552;9.370;2022-07-12T08:39:50;2.03;;;1.90;;
4601;SDS011;2313;48.552;9.370;2022-07-12T08:42:16;2.37;;;1.90;;
4601;SDS011;2313;48.552;9.370;2022-07-12T08:44:43;2.17;;;1.93;;
4601;SDS011;2313;48.552;9.370;2022-07-12T08:47:10;2.10;;;2.00;;
4601;SDS011;2313;48.552;9.370;2022-07-12T08:49:36;3.10;;;2.37;;
4601;SDS011;2313;48.552;9.370;2022-07-12T08:52:22;1.60;;;1.50;;
4601;SDS011;2313;48.552;9.370;2022-07-12T08:54:52;1.90;;;1.80;;
4601;SDS011;2313;48.552;9.370;2022-07-12T08:57:38;1.87;;;1.70;;
4601;SDS011;2313;48.552;9.370;2022-07-12T09:00:04;1.63;;;1.37;;
4601;SDS011;2313;48.552;9.370;2022-07-12T09:02:35;1.20;;;1.10;;
4601;SDS011;2313;48.552;9.370;2022-07-12T09:05:16;2.13;;;1.37;;
4601;SDS011;2313;48.552;9.370;2022-07-12T09:07:42;2.10;;;1.77;;
4601;SDS011;2313;48.552;9.370;2022-07-12T09:10:09;3.53;;;1.60;;
4601;SDS011;2313;48.552;9.370;2022-07-12T09:12:36;1.77;;;1.67;;
4601;SDS011;2313;48.552;9.370;2022-07-12T09:15:15;1.20;;;1.10;;
4601;SDS011;2313;48.552;9.370;2022-07-12T09:17:54;1.20;;;1.03;;
4601;SDS011;2313;48.552;9.370;2022-07-12T09:20:34;1.17;;;1.07;;
4601;SDS011;2313;48.552;9.370;2022-07-12T09:23:04;1.20;;;1.10;;
4601;SDS011;2313;48.552;9.370;2022-07-12T09:25:31;1.57;;;1.10;;
4601;SDS011;2313;48.552;9.370;2022-07-12T09:27:57;1.30;;;1.00;;
4601;SDS011;2313;48.552;9.370;2022-07-12T09:30:25;1.10;;;1.00;;
4601;SDS011;2313;48.552;9.370;2022-07-12T09:33:00;1.07;;;0.97;;
4601;SDS011;2313;48.552;9.370;2022-07-12T09:41:00;1.30;;;1.20;;
4601;SDS011;2313;48.552;9.370;2022-07-12T09:43:26;1.00;;;0.97;;
4601;SDS011;2313;48.552;9.370;2022-07-12T09:45:52;1.40;;;1.30;;
4601;SDS011;2313;48.552;9.370;2022-07-12T09:48:19;2.57;;;1.83;;
4601;SDS011;2313;48.552;9.370;2022-07-12T09:50:52;2.63;;;1.60;;
4601;SDS011;2313;48.552;9.370;2022-07-12T09:53:21;1.67;;;1.33;;
4601;SDS011;2313;48.552;9.370;2022-07-12T09:55:52;5.40;;;1.63;;
4601;SDS011;2313;48.552;9.370;2022-07-12T09:58:30;1.57;;;1.47;;
4601;SDS011;2313;48.552;9.370;2022-07-12T10:01:00;2.37;;;1.03;;
4601;SDS011;2313;48.552;9.370;2022-07-12T10:03:28;1.93;;;1.23;;
4601;SDS011;2313;48.552;9.370;2022-07-12T10:05:56;2.53;;;1.70;;
4601;SDS011;2313;48.552;9.370;2022-07-12T10:08:25;1.90;;;1.70;;
4601;SDS011;2313;48.552;9.370;2022-07-12T10:10:51;1.80;;;1.70;;
4601;SDS011;2313;48.552;9.370;2022-07-12T10:13:17;1.27;;;1.17;;
4601;SDS011;2313;48.552;9.370;2022-07-12T10:15:45;5.50;;;1.70;;
4601;SDS011;2313;48.552;9.370;2022-07-12T10:18:16;2.63;;;1.60;;
4601;SDS011;2313;48.552;9.370;2022-07-12T10:20:43;1.60;;;1.40;;
4601;SDS011;2313;48.552;9.370;2022-07-12T10:25:41;1.47;;;1.20;;
4601;SDS011;2313;48.552;9.370;2022-07-12T10:28:07;3.20;;;1.50;;
4601;SDS011;2313;48.552;9.370;2022-07-12T10:30:42;1.87;;;1.50;;
4601;SDS011;2313;48.552;9.370;2022-07-12T10:33:17;2.87;;;1.20;;
4601;SDS011;2313;48.552;9.370;2022-07-12T10:36:03;2.93;;;1.30;;
4601;SDS011;2313;48.552;9.370;2022-07-12T10:38:32;1.80;;;1.40;;
4601;SDS011;2313;48.552;9.370;2022-07-12T10:41:15;2.10;;;1.37;;
4601;SDS011;2313;48.552;9.370;2022-07-12T10:43:45;2.80;;;1.57;;
4601;SDS011;2313;48.552;9.370;2022-07-12T10:46:29;2.70;;;1.50;;
4601;SDS011;2313;48.552;9.370;2022-07-12T10:54:34;2.03;;;1.90;;
4601;SDS011;2313;48.552;9.370;2022-07-12T10:57:04;1.80;;;1.70;;
4601;SDS011;2313;48.552;9.370;2022-07-12T10:59:30;2.00;;;1.90;;
4601;SDS011;2313;48.552;9.370;2022-07-12T11:02:00;2.27;;;1.43;;
4601;SDS011;2313;48.552;9.370;2022-07-12T11:04:26;1.90;;;1.80;;
4601;SDS011;2313;48.552;9.370;2022-07-12T11:06:52;2.00;;;1.90;;
4601;SDS011;2313;48.552;9.370;2022-07-12T11:09:21;2.90;;;1.40;;
4601;SDS011;2313;48.552;9.370;2022-07-12T11:11:49;3.57;;;1.97;;
4601;SDS011;2313;48.552;9.370;2022-07-12T11:16:48;5.20;;;1.77;;
4601;SDS011;2313;48.552;9.370;2022-07-12T11:19:15;2.17;;;1.70;;
4601;SDS011;2313;48.552;9.370;2022-07-12T11:21:44;1.17;;;1.07;;
4601;SDS011;2313;48.552;9.370;2022-07-12T11:24:17;1.40;;;1.30;;
4601;SDS011;2313;48.552;9.370;2022-07-12T11:26:44;1.77;;;1.23;;
4601;SDS011;2313;48.552;9.370;2022-07-12T11:29:11;1.70;;;1.60;;
4601;SDS011;2313;48.552;9.370;2022-07-12T11:31:37;1.67;;;1.57;;
4601;SDS011;2313;48.552;9.370;2022-07-12T11:34:03;1.93;;;1.83;;
4601;SDS011;2313;48.552;9.370;2022-07-12T11:36:28;1.63;;;1.33;;
4601;SDS011;2313;48.552;9.370;2022-07-12T11:38:55;3.37;;;1.43;;
4601;SDS011;2313;48.552;9.370;2022-07-12T11:41:21;2.33;;;0.90;;
4601;SDS011;2313;48.552;9.370;2022-07-12T11:43:48;2.60;;;1.30;;
4601;SDS011;2313;48.552;9.370;2022-07-12T11:46:14;2.83;;;1.07;;
4601;SDS011;2313;48.552;9.370;2022-07-12T11:48:41;3.23;;;1.20;;
4601;SDS011;2313;48.552;9.370;2022-07-12T11:51:11;1.47;;;1.03;;
4601;SDS011;2313;48.552;9.370;2022-07-12T11:53:38;2.13;;;0.90;;
4601;SDS011;2313;48.552;9.370;2022-07-12T11:56:05;3.37;;;1.00;;
4601;SDS011;2313;48.552;9.370;2022-07-12T11:58:32;2.20;;;0.80;;
4601;SDS011;2313;48.552;9.370;2022-07-12T12:01:02;1.13;;;1.03;;
4601;SDS011;2313;48.552;9.370;2022-07-12T12:03:28;2.40;;;0.80;;
4601;SDS011;2313;48.552;9.370;2022-07-12T12:05:54;1.00;;;0.93;;
4601;SDS011;2313;48.552;9.370;2022-07-12T12:08:21;1.10;;;0.90;;
4601;SDS011;2313;48.552;9.370;2022-07-12T12:13:20;1.33;;;0.80;;
4601;SDS011;2313;48.552;9.370;2022-07-12T12:15:50;1.90;;;1.10;;
4601;SDS011;2313;48.552;9.370;2022-07-12T12:18:27;1.40;;;0.90;;
4601;SDS011;2313;48.552;9.370;2022-07-12T12:20:58;4.10;;;0.90;;
4601;SDS011;2313;48.552;9.370;2022-07-12T12:23:25;1.00;;;0.80;;
4601;SDS011;2313;48.552;9.370;2022-07-12T12:25:51;1.10;;;0.80;;
4601;SDS011;2313;48.552;9.370;2022-07-12T12:28:18;0.90;;;0.67;;
4601;SDS011;2313;48.552;9.370;2022-07-12T12:30:54;3.90;;;0.80;;
4601;SDS011;2313;48.552;9.370;2022-07-12T12:33:36;1.67;;;0.90;;
4601;SDS011;2313;48.552;9.370;2022-07-12T12:38:43;1.23;;;0.80;;
4601;SDS011;2313;48.552;9.370;2022-07-12T12:41:09;0.80;;;0.80;;
4601;SDS011;2313;48.552;9.370;2022-07-12T12:43:35;1.60;;;0.70;;
4601;SDS011;2313;48.552;9.370;2022-07-12T12:46:01;1.37;;;0.97;;
4601;SDS011;2313;48.552;9.370;2022-07-12T12:48:28;1.10;;;0.90;;
4601;SDS011;2313;48.552;9.370;2022-07-12T12:53:35;1.23;;;0.70;;
4601;SDS011;2313;48.552;9.370;2022-07-12T12:56:05;5.90;;;0.90;;
4601;SDS011;2313;48.552;9.370;2022-07-12T12:58:33;1.03;;;0.60;;
4601;SDS011;2313;48.552;9.370;2022-07-12T13:01:00;1.30;;;0.90;;
4601;SDS011;2313;48.552;9.370;2022-07-12T13:03:25;1.67;;;0.73;;
4601;SDS011;2313;48.552;9.370;2022-07-12T13:05:51;1.63;;;0.60;;
4601;SDS011;2313;48.552;9.370;2022-07-12T13:08:17;0.80;;;0.67;;
4601;SDS011;2313;48.552;9.370;2022-07-12T13:10:44;1.20;;;0.70;;
4601;SDS011;2313;48.552;9.370;2022-07-12T13:13:11;2.70;;;0.70;;
4601;SDS011;2313;48.552;9.370;2022-07-12T13:15:37;1.43;;;0.93;;
4601;SDS011;2313;48.552;9.370;2022-07-12T13:18:04;1.50;;;0.80;;
4601;SDS011;2313;48.552;9.370;2022-07-12T13:20:31;1.17;;;0.67;;
4601;SDS011;2313;48.552;9.370;2022-07-12T13:22:57;2.20;;;0.70;;
4601;SDS011;2313;48.552;9.370;2022-07-12T13:25:23;1.00;;;0.90;;
4601;SDS011;2313;48.552;9.370;2022-07-12T13:27:50;1.47;;;0.80;;
4601;SDS011;2313;48.552;9.370;2022-07-12T13:30:17;5.37;;;0.70;;
4601;SDS011;2313;48.552;9.370;2022-07-12T13:32:44;6.27;;;0.63;;
4601;SDS011;2313;48.552;9.370;2022-07-12T13:35:10;5.30;;;0.80;;
4601;SDS011;2313;48.552;9.370;2022-07-12T13:37:37;0.90;;;0.70;;
4601;SDS011;2313;48.552;9.370;2022-07-12T13:40:04;0.90;;;0.60;;
4601;SDS011;2313;48.552;9.370;2022-07-12T13:45:02;0.80;;;0.60;;
4601;SDS011;2313;48.552;9.370;2022-07-12T13:47:28;0.90;;;0.50;;
4601;SDS011;2313;48.552;9.370;2022-07-12T13:49:54;1.23;;;0.70;;
4601;SDS011;2313;48.552;9.370;2022-07-12T13:52:20;1.30;;;0.70;;
4601;SDS011;2313;48.552;9.370;2022-07-12T13:54:45;0.93;;;0.70;;
4601;SDS011;2313;48.552;9.370;2022-07-12T13:57:11;1.67;;;0.60;;
4601;SDS011;2313;48.552;9.370;2022-07-12T13:59:37;0.70;;;0.50;;
4601;SDS011;2313;48.552;9.370;2022-07-12T14:02:03;2.10;;;0.50;;
4601;SDS011;2313;48.552;9.370;2022-07-12T14:04:29;0.90;;;0.50;;
4601;SDS011;2313;48.552;9.370;2022-07-12T14:06:56;0.80;;;0.50;;
4601;SDS011;2313;48.552;9.370;2022-07-12T14:09:22;2.20;;;0.70;;
4601;SDS011;2313;48.552;9.370;2022-07-12T14:11:48;2.23;;;0.60;;
4601;SDS011;2313;48.552;9.370;2022-07-12T14:14:14;1.47;;;0.60;;
4601;SDS011;2313;48.552;9.370;2022-07-12T14:16:41;0.90;;;0.43;;
4601;SDS011;2313;48.552;9.370;2022-07-12T14:19:06;1.00;;;0.60;;
4601;SDS011;2313;48.552;9.370;2022-07-12T14:21:32;3.80;;;0.60;;
4601;SDS011;2313;48.552;9.370;2022-07-12T14:23:57;1.53;;;0.70;;
4601;SDS011;2313;48.552;9.370;2022-07-12T14:26:27;1.23;;;0.60;;
4601;SDS011;2313;48.552;9.370;2022-07-12T14:28:53;2.40;;;0.60;;
4601;SDS011;2313;48.552;9.370;2022-07-12T14:31:19;0.70;;;0.60;;
4601;SDS011;2313;48.552;9.370;2022-07-12T14:33:44;0.77;;;0.60;;
4601;SDS011;2313;48.552;9.370;2022-07-12T14:36:10;0.90;;;0.60;;
4601;SDS011;2313;48.552;9.370;2022-07-12T14:38:36;0.80;;;0.40;;
4601;SDS011;2313;48.552;9.370;2022-07-12T14:41:02;2.47;;;0.60;;
4601;SDS011;2313;48.552;9.370;2022-07-12T14:43:28;1.20;;;0.50;;
4601;SDS011;2313;48.552;9.370;2022-07-12T14:45:53;2.30;;;0.70;;
4601;SDS011;2313;48.552;9.370;2022-07-12T14:48:20;2.10;;;0.50;;
4601;SDS011;2313;48.552;9.370;2022-07-12T14:50:46;1.53;;;0.60;;
4601;SDS011;2313;48.552;9.370;2022-07-12T14:53:12;1.77;;;0.60;;
4601;SDS011;2313;48.552;9.370;2022-07-12T14:55:38;0.80;;;0.70;;
4601;SDS011;2313;48.552;9.370;2022-07-12T14:58:05;0.80;;;0.70;;
4601;SDS011;2313;48.552;9.370;2022-07-12T15:00:33;1.40;;;0.70;;
4601;SDS011;2313;48.552;9.370;2022-07-12T15:03:02;2.43;;;0.60;;
4601;SDS011;2313;48.552;9.370;2022-07-12T15:05:28;1.47;;;0.80;;
4601;SDS011;2313;48.552;9.370;2022-07-12T15:07:54;0.80;;;0.50;;
4601;SDS011;2313;48.552;9.370;2022-07-12T15:10:20;4.53;;;0.60;;
4601;SDS011;2313;48.552;9.370;2022-07-12T15:12:45;2.63;;;0.80;;
4601;SDS011;2313;48.552;9.370;2022-07-12T15:15:12;0.80;;;0.67;;
4601;SDS011;2313;48.552;9.370;2022-07-12T15:17:38;1.33;;;1.00;;
4601;SDS011;2313;48.552;9.370;2022-07-12T15:20:04;1.07;;;0.60;;
4601;SDS011;2313;48.552;9.370;2022-07-12T15:22:30;1.10;;;0.77;;
4601;SDS011;2313;48.552;9.370;2022-07-12T15:24:56;2.83;;;0.60;;
4601;SDS011;2313;48.552;9.370;2022-07-12T15:27:22;4.13;;;0.80;;
4601;SDS011;2313;48.552;9.370;2022-07-12T15:29:49;1.10;;;0.50;;
4601;SDS011;2313;48.552;9.370;2022-07-12T15:32:16;0.73;;;0.50;;
4601;SDS011;2313;48.552;9.370;2022-07-12T15:34:42;0.70;;;0.50;;
4601;SDS011;2313;48.552;9.370;2022-07-12T15:37:07;1.00;;;0.50;;
4601;SDS011;2313;48.552;9.370;2022-07-12T15:39:33;0.70;;;0.50;;
4601;SDS011;2313;48.552;9.370;2022-07-12T15:41:59;2.33;;;0.70;;
4601;SDS011;2313;48.552;9.370;2022-07-12T15:44:25;0.80;;;0.50;;